sensor_id;sensor_type;location;lat;lon;timestamp;pressure;altitude;pressure_sealevel;temperature;humidity
74065;BME280;62421;51.412;5.432;2023-08-30T00:01:28;100785.50;;;11.92;100.00
74065;BME280;62421;51.412;5.432;2023-08-30T00:03:53;100774.84;;;11.90;100.00
74065;BME280;62421;51.412;5.432;2023-08-30T00:06:19;100776.88;;;11.86;100.00
74065;BME280;62421;51.412;5.432;2023-08-30T00:08:45;100774.44;;;11.83;100.00
74065;BME280;62421;51.412;5.432;2023-08-30T00:11:10;100775.00;;;11.76;100.00
74065;BME280;62421;51.412;5.432;2023-08-30T00:13:36;100779.16;;;11.68;100.00
74065;BME280;62421;51.412;5.432;2023-08-30T00:16:01;100768.75;;;11.64;100.00
74065;BME280;62421;51.412;5.432;2023-08-30T00:18:28;100767.25;;;11.60;100.00
74065;BME280;62421;51.412;5.432;2023-08-30T00:20:53;100765.03;;;11.54;100.00
74065;BME280;62421;51.412;5.432;2023-08-30T00:23:18;100767.06;;;11.50;100.00
74065;BME280;62421;51.412;5.432;2023-08-30T00:25:44;100767.31;;;11.47;100.00
74065;BME280;62421;51.412;5.432;2023-08-30T00:28:09;100757.75;;;11.43;100.00
74065;BME280;62421;51.412;5.432;2023-08-30T00:30:34;100763.25;;;11.41;100.00
74065;BME280;62421;51.412;5.432;2023-08-30T00:33:00;100763.50;;;11.38;100.00
74065;BME280;62421;51.412;5.432;2023-08-30T00:35:25;100760.06;;;11.36;100.00
74065;BME280;62421;51.412;5.432;2023-08-30T00:37:50;100755.88;;;11.32;100.00
74065;BME280;62421;51.412;5.432;2023-08-30T00:40:16;100760.50;;;11.30;100.00
74065;BME280;62421;51.412;5.432;2023-08-30T00:42:41;100754.50;;;11.26;100.00
74065;BME280;62421;51.412;5.432;2023-08-30T00:45:07;100757.53;;;11.22;100.00
74065;BME280;62421;51.412;5.432;2023-08-30T00:47:33;100746.38;;;11.15;100.00
74065;BME280;62421;51.412;5.432;2023-08-30T00:49:59;100738.75;;;11.09;100.00
74065;BME280;62421;51.412;5.432;2023-08-30T00:52:25;100746.41;;;11.02;100.00
74065;BME280;62421;51.412;5.432;2023-08-30T00:54:51;100744.06;;;10.98;100.00
74065;BME280;62421;51.412;5.432;2023-08-30T00:57:16;100734.88;;;10.89;100.00
74065;BME280;62421;51.412;5.432;2023-08-30T00:59:41;100738.97;;;10.82;100.00
74065;BME280;62421;51.412;5.432;2023-08-30T01:02:07;100727.69;;;10.77;100.00
74065;BME280;62421;51.412;5.432;2023-08-30T01:04:32;100737.78;;;10.73;100.00
74065;BME280;62421;51.412;5.432;2023-08-30T01:06:57;100730.19;;;10.67;100.00
74065;BME280;62421;51.412;5.432;2023-08-30T01:09:25;100734.06;;;10.63;100.00
74065;BME280;62421;51.412;5.432;2023-08-30T01:12:10;100735.16;;;10.60;100.00
74065;BME280;62421;51.412;5.432;2023-08-30T01:14:47;100726.34;;;10.58;100.00
74065;BME280;62421;51.412;5.432;2023-08-30T01:17:16;100737.19;;;10.57;100.00
74065;BME280;62421;51.412;5.432;2023-08-30T01:25:15;100718.19;;;10.47;100.00
74065;BME280;62421;51.412;5.432;2023-08-30T01:27:44;100723.69;;;10.45;100.00
74065;BME280;62421;51.412;5.432;2023-08-30T01:30:11;100718.44;;;10.44;100.00
74065;BME280;62421;51.412;5.432;2023-08-30T01:32:37;100723.03;;;10.42;100.00
74065;BME280;62421;51.412;5.432;2023-08-30T01:35:04;100722.19;;;10.41;100.00
74065;BME280;62421;51.412;5.432;2023-08-30T01:37:31;100719.72;;;10.38;100.00
74065;BME280;62421;51.412;5.432;2023-08-30T01:39:57;100722.63;;;10.35;100.00
74065;BME280;62421;51.412;5.432;2023-08-30T01:42:26;100719.19;;;10.33;100.00
74065;BME280;62421;51.412;5.432;2023-08-30T01:44:53;100715.00;;;10.29;100.00
74065;BME280;62421;51.412;5.432;2023-08-30T01:47:27;100708.94;;;10.25;100.00
74065;BME280;62421;51.412;5.432;2023-08-30T01:49:53;100718.19;;;10.21;100.00
74065;BME280;62421;51.412;5.432;2023-08-30T01:52:20;100721.09;;;10.18;100.00
74065;BME280;62421;51.412;5.432;2023-08-30T01:54:47;100713.38;;;10.14;100.00
74065;BME280;62421;51.412;5.432;2023-08-30T01:57:13;100715.22;;;10.13;100.00
74065;BME280;62421;51.412;5.432;2023-08-30T01:59:38;100716.16;;;10.12;100.00
74065;BME280;62421;51.412;5.432;2023-08-30T02:02:04;100720.56;;;10.13;100.00
74065;BME280;62421;51.412;5.432;2023-08-30T02:04:30;100720.25;;;10.18;100.00
74065;BME280;62421;51.412;5.432;2023-08-30T02:07:03;100719.16;;;10.20;100.00
74065;BME280;62421;51.412;5.432;2023-08-30T02:09:40;100713.25;;;10.28;100.00
74065;BME280;62421;51.412;5.432;2023-08-30T02:12:11;100712.09;;;10.32;100.00
74065;BME280;62421;51.412;5.432;2023-08-30T02:14:39;100712.50;;;10.39;100.00
74065;BME280;62421;51.412;5.432;2023-08-30T02:17:07;100710.88;;;10.49;100.00
74065;BME280;62421;51.412;5.432;2023-08-30T02:19:33;100708.50;;;10.57;100.00
74065;BME280;62421;51.412;5.432;2023-08-30T02:21:59;100703.56;;;10.64;100.00
74065;BME280;62421;51.412;5.432;2023-08-30T02:24:24;100706.78;;;10.69;100.00
74065;BME280;62421;51.412;5.432;2023-08-30T02:26:50;100702.78;;;10.75;100.00
74065;BME280;62421;51.412;5.432;2023-08-30T02:29:15;100695.13;;;10.81;100.00
74065;BME280;62421;51.412;5.432;2023-08-30T02:31:40;100691.03;;;10.89;100.00
74065;BME280;62421;51.412;5.432;2023-08-30T02:34:05;100688.75;;;10.95;100.00
74065;BME280;62421;51.412;5.432;2023-08-30T02:36:31;100692.03;;;10.99;100.00
74065;BME280;62421;51.412;5.432;2023-08-30T02:38:56;100692.78;;;11.01;100.00
74065;BME280;62421;51.412;5.432;2023-08-30T02:41:22;100692.44;;;11.05;100.00
74065;BME280;62421;51.412;5.432;2023-08-30T02:43:47;100690.41;;;11.09;100.00
74065;BME280;62421;51.412;5.432;2023-08-30T02:46:12;100689.31;;;11.12;100.00
74065;BME280;62421;51.412;5.432;2023-08-30T02:48:37;100694.31;;;11.16;100.00
74065;BME280;62421;51.412;5.432;2023-08-30T02:51:03;100695.06;;;11.18;100.00
74065;BME280;62421;51.412;5.432;2023-08-30T02:53:28;100677.13;;;11.19;100.00
74065;BME280;62421;51.412;5.432;2023-08-30T02:55:53;100684.09;;;11.21;100.00
74065;BME280;62421;51.412;5.432;2023-08-30T02:58:21;100682.91;;;11.25;100.00
74065;BME280;62421;51.412;5.432;2023-08-30T03:00:46;100670.22;;;11.27;100.00
74065;BME280;62421;51.412;5.432;2023-08-30T03:03:11;100663.94;;;11.27;100.00
74065;BME280;62421;51.412;5.432;2023-08-30T03:05:37;100672.00;;;11.27;100.00
74065;BME280;62421;51.412;5.432;2023-08-30T03:08:03;100666.53;;;11.28;100.00
74065;BME280;62421;51.412;5.432;2023-08-30T03:10:28;100663.75;;;11.30;100.00
74065;BME280;62421;51.412;5.432;2023-08-30T03:12:54;100662.88;;;11.30;100.00
74065;BME280;62421;51.412;5.432;2023-08-30T03:15:19;100669.97;;;11.31;100.00
74065;BME280;62421;51.412;5.432;2023-08-30T03:17:44;100665.44;;;11.31;100.00
74065;BME280;62421;51.412;5.432;2023-08-30T03:20:10;100667.16;;;11.32;100.00
74065;BME280;62421;51.412;5.432;2023-08-30T03:22:35;100669.75;;;11.34;100.00
74065;BME280;62421;51.412;5.432;2023-08-30T03:25:01;100659.84;;;11.34;100.00
74065;BME280;62421;51.412;5.432;2023-08-30T03:27:28;100655.94;;;11.38;100.00
74065;BME280;62421;51.412;5.432;2023-08-30T03:29:55;100658.50;;;11.40;100.00
74065;BME280;62421;51.412;5.432;2023-08-30T03:32:21;100656.56;;;11.42;100.00
74065;BME280;62421;51.412;5.432;2023-08-30T03:34:47;100655.50;;;11.44;100.00
74065;BME280;62421;51.412;5.432;2023-08-30T03:37:14;100651.69;;;11.47;100.00
74065;BME280;62421;51.412;5.432;2023-08-30T03:39:39;100647.91;;;11.50;100.00
74065;BME280;62421;51.412;5.432;2023-08-30T03:42:05;100643.28;;;11.52;100.00
74065;BME280;62421;51.412;5.432;2023-08-30T03:44:30;100626.16;;;11.53;100.00
74065;BME280;62421;51.412;5.432;2023-08-30T03:46:55;100619.56;;;11.57;100.00
74065;BME280;62421;51.412;5.432;2023-08-30T03:49:22;100621.16;;;11.59;100.00
74065;BME280;62421;51.412;5.432;2023-08-30T03:51:47;100614.69;;;11.62;100.00
74065;BME280;62421;51.412;5.432;2023-08-30T03:54:13;100600.25;;;11.63;100.00
74065;BME280;62421;51.412;5.432;2023-08-30T03:56:41;100591.47;;;11.61;100.00
74065;BME280;62421;51.412;5.432;2023-08-30T03:59:07;100599.78;;;11.58;100.00
74065;BME280;62421;51.412;5.432;2023-08-30T04:01:33;100589.50;;;11.52;100.00
74065;BME280;62421;51.412;5.432;2023-08-30T04:03:58;100590.97;;;11.44;100.00
74065;BME280;62421;51.412;5.432;2023-08-30T04:06:23;100584.56;;;11.34;100.00
74065;BME280;62421;51.412;5.432;2023-08-30T04:08:49;100577.22;;;11.25;100.00
74065;BME280;62421;51.412;5.432;2023-08-30T04:11:14;100581.59;;;11.15;100.00
74065;BME280;62421;51.412;5.432;2023-08-30T04:13:39;100575.19;;;11.04;100.00
74065;BME280;62421;51.412;5.432;2023-08-30T04:16:05;100576.66;;;10.97;100.00
74065;BME280;62421;51.412;5.432;2023-08-30T04:18:30;100570.00;;;10.90;100.00
74065;BME280;62421;51.412;5.432;2023-08-30T04:20:57;100557.78;;;10.86;100.00
74065;BME280;62421;51.412;5.432;2023-08-30T04:23:23;100564.16;;;10.85;100.00
74065;BME280;62421;51.412;5.432;2023-08-30T04:25:48;100562.41;;;10.84;100.00
74065;BME280;62421;51.412;5.432;2023-08-30T04:28:14;100564.25;;;10.83;100.00
74065;BME280;62421;51.412;5.432;2023-08-30T04:30:39;100568.53;;;10.86;100.00
74065;BME280;62421;51.412;5.432;2023-08-30T04:33:05;100567.22;;;10.92;100.00
74065;BME280;62421;51.412;5.432;2023-08-30T04:35:30;100564.06;;;10.98;100.00
74065;BME280;62421;51.412;5.432;2023-08-30T04:38:01;100561.88;;;11.03;100.00
74065;BME280;62421;51.412;5.432;2023-08-30T04:40:27;100555.31;;;11.07;100.00
74065;BME280;62421;51.412;5.432;2023-08-30T04:42:52;100555.09;;;11.10;100.00
74065;BME280;62421;51.412;5.432;2023-08-30T04:45:18;100565.34;;;11.16;100.00
74065;BME280;62421;51.412;5.432;2023-08-30T04:47:43;100556.22;;;11.30;100.00
74065;BME280;62421;51.412;5.432;2023-08-30T04:50:10;100549.38;;;11.37;100.00
74065;BME280;62421;51.412;5.432;2023-08-30T04:52:36;100544.38;;;11.44;100.00
74065;BME280;62421;51.412;5.432;2023-08-30T04:55:01;100546.69;;;11.48;100.00
74065;BME280;62421;51.412;5.432;2023-08-30T04:57:27;100555.16;;;11.55;100.00
74065;BME280;62421;51.412;5.432;2023-08-30T04:59:53;100553.06;;;11.59;100.00
74065;BME280;62421;51.412;5.432;2023-08-30T05:02:18;100545.50;;;11.64;100.00
74065;BME280;62421;51.412;5.432;2023-08-30T05:04:44;100546.97;;;11.68;100.00
74065;BME280;62421;51.412;5.432;2023-08-30T05:07:09;100542.09;;;11.73;100.00
74065;BME280;62421;51.412;5.432;2023-08-30T05:09:34;100549.78;;;11.78;100.00
74065;BME280;62421;51.412;5.432;2023-08-30T05:12:00;100540.59;;;11.80;100.00
74065;BME280;62421;51.412;5.432;2023-08-30T05:14:25;100533.03;;;11.85;100.00
74065;BME280;62421;51.412;5.432;2023-08-30T05:16:51;100528.28;;;11.89;100.00
74065;BME280;62421;51.412;5.432;2023-08-30T05:19:16;100524.38;;;11.93;100.00
74065;BME280;62421;51.412;5.432;2023-08-30T05:21:42;100527.56;;;11.98;100.00
74065;BME280;62421;51.412;5.432;2023-08-30T05:24:08;100532.56;;;12.03;100.00
74065;BME280;62421;51.412;5.432;2023-08-30T05:26:33;100528.50;;;12.08;100.00
74065;BME280;62421;51.412;5.432;2023-08-30T05:28:59;100524.47;;;12.14;100.00
74065;BME280;62421;51.412;5.432;2023-08-30T05:31:24;100514.31;;;12.18;100.00
74065;BME280;62421;51.412;5.432;2023-08-30T05:33:49;100516.50;;;12.24;100.00
74065;BME280;62421;51.412;5.432;2023-08-30T05:36:15;100522.34;;;12.29;100.00
74065;BME280;62421;51.412;5.432;2023-08-30T05:38:40;100514.88;;;12.33;100.00
74065;BME280;62421;51.412;5.432;2023-08-30T05:41:07;100509.84;;;12.39;100.00
74065;BME280;62421;51.412;5.432;2023-08-30T05:43:32;100501.63;;;12.41;100.00
74065;BME280;62421;51.412;5.432;2023-08-30T05:45:57;100497.69;;;12.45;100.00
74065;BME280;62421;51.412;5.432;2023-08-30T05:48:27;100516.88;;;12.52;100.00
74065;BME280;62421;51.412;5.432;2023-08-30T05:50:53;100506.59;;;12.57;100.00
74065;BME280;62421;51.412;5.432;2023-08-30T05:53:18;100498.84;;;12.63;100.00
74065;BME280;62421;51.412;5.432;2023-08-30T05:55:43;100491.94;;;12.70;100.00
74065;BME280;62421;51.412;5.432;2023-08-30T05:58:09;100493.16;;;12.78;100.00
74065;BME280;62421;51.412;5.432;2023-08-30T06:00:34;100487.09;;;12.85;100.00
74065;BME280;62421;51.412;5.432;2023-08-30T06:02:59;100483.03;;;12.91;100.00
74065;BME280;62421;51.412;5.432;2023-08-30T06:05:26;100490.72;;;12.96;100.00
74065;BME280;62421;51.412;5.432;2023-08-30T06:07:51;100495.13;;;12.97;100.00
74065;BME280;62421;51.412;5.432;2023-08-30T06:10:16;100493.31;;;12.97;100.00
74065;BME280;62421;51.412;5.432;2023-08-30T06:12:42;100484.09;;;13.00;100.00
74065;BME280;62421;51.412;5.432;2023-08-30T06:15:07;100487.50;;;13.02;100.00
74065;BME280;62421;51.412;5.432;2023-08-30T06:17:33;100481.00;;;13.04;100.00
74065;BME280;62421;51.412;5.432;2023-08-30T06:19:58;100481.44;;;13.09;100.00
74065;BME280;62421;51.412;5.432;2023-08-30T06:22:23;100474.06;;;13.11;100.00
74065;BME280;62421;51.412;5.432;2023-08-30T06:24:49;100474.78;;;13.14;100.00
74065;BME280;62421;51.412;5.432;2023-08-30T06:27:14;100471.84;;;13.17;100.00
74065;BME280;62421;51.412;5.432;2023-08-30T06:29:39;100462.75;;;13.18;100.00
74065;BME280;62421;51.412;5.432;2023-08-30T06:32:05;100466.91;;;13.22;100.00
74065;BME280;62421;51.412;5.432;2023-08-30T06:34:30;100467.63;;;13.24;100.00
74065;BME280;62421;51.412;5.432;2023-08-30T06:36:56;100479.13;;;13.26;100.00
74065;BME280;62421;51.412;5.432;2023-08-30T06:39:21;100488.81;;;13.28;100.00
74065;BME280;62421;51.412;5.432;2023-08-30T06:41:46;100477.91;;;13.30;100.00
74065;BME280;62421;51.412;5.432;2023-08-30T06:44:11;100483.69;;;13.25;100.00
74065;BME280;62421;51.412;5.432;2023-08-30T06:46:37;100470.44;;;13.22;100.00
74065;BME280;62421;51.412;5.432;2023-08-30T06:49:03;100461.63;;;13.20;100.00
74065;BME280;62421;51.412;5.432;2023-08-30T06:51:28;100475.13;;;13.20;100.00
74065;BME280;62421;51.412;5.432;2023-08-30T06:53:54;100478.69;;;13.21;100.00
74065;BME280;62421;51.412;5.432;2023-08-30T06:56:20;100479.41;;;13.23;100.00
74065;BME280;62421;51.412;5.432;2023-08-30T06:58:46;100470.31;;;13.24;100.00
74065;BME280;62421;51.412;5.432;2023-08-30T07:01:11;100473.13;;;13.22;100.00
74065;BME280;62421;51.412;5.432;2023-08-30T07:03:37;100477.97;;;13.19;100.00
74065;BME280;62421;51.412;5.432;2023-08-30T07:06:02;100484.44;;;13.16;100.00
74065;BME280;62421;51.412;5.432;2023-08-30T07:08:28;100479.47;;;13.11;100.00
74065;BME280;62421;51.412;5.432;2023-08-30T07:10:53;100470.22;;;13.04;100.00
74065;BME280;62421;51.412;5.432;2023-08-30T07:13:18;100466.06;;;13.00;100.00
74065;BME280;62421;51.412;5.432;2023-08-30T07:15:44;100456.53;;;12.96;100.00
74065;BME280;62421;51.412;5.432;2023-08-30T07:18:09;100458.63;;;12.93;100.00
74065;BME280;62421;51.412;5.432;2023-08-30T07:20:39;100452.78;;;12.87;100.00
74065;BME280;62421;51.412;5.432;2023-08-30T07:23:04;100457.34;;;12.87;100.00
74065;BME280;62421;51.412;5.432;2023-08-30T07:25:30;100456.63;;;12.85;100.00
74065;BME280;62421;51.412;5.432;2023-08-30T07:27:57;100451.34;;;12.83;100.00
74065;BME280;62421;51.412;5.432;2023-08-30T07:30:22;100442.28;;;12.84;100.00
74065;BME280;62421;51.412;5.432;2023-08-30T07:32:48;100433.94;;;12.87;100.00
74065;BME280;62421;51.412;5.432;2023-08-30T07:35:13;100435.66;;;12.88;100.00
74065;BME280;62421;51.412;5.432;2023-08-30T07:37:38;100436.34;;;12.90;100.00
74065;BME280;62421;51.412;5.432;2023-08-30T07:40:04;100431.84;;;12.91;100.00
74065;BME280;62421;51.412;5.432;2023-08-30T07:42:30;100432.81;;;12.90;100.00
74065;BME280;62421;51.412;5.432;2023-08-30T07:44:55;100429.28;;;12.89;100.00
74065;BME280;62421;51.412;5.432;2023-08-30T07:47:20;100436.91;;;12.84;100.00
74065;BME280;62421;51.412;5.432;2023-08-30T07:49:45;100436.31;;;12.81;100.00
74065;BME280;62421;51.412;5.432;2023-08-30T07:52:11;100432.63;;;12.82;100.00
74065;BME280;62421;51.412;5.432;2023-08-30T07:54:39;100427.94;;;12.84;100.00
74065;BME280;62421;51.412;5.432;2023-08-30T07:57:05;100442.03;;;12.87;100.00
74065;BME280;62421;51.412;5.432;2023-08-30T07:59:33;100439.78;;;12.93;100.00
74065;BME280;62421;51.412;5.432;2023-08-30T08:01:59;100440.13;;;12.99;100.00
74065;BME280;62421;51.412;5.432;2023-08-30T08:04:24;100426.81;;;13.07;100.00
74065;BME280;62421;51.412;5.432;2023-08-30T08:06:50;100431.53;;;13.15;100.00
74065;BME280;62421;51.412;5.432;2023-08-30T08:09:15;100440.34;;;13.17;100.00
74065;BME280;62421;51.412;5.432;2023-08-30T08:11:40;100432.25;;;13.17;100.00
74065;BME280;62421;51.412;5.432;2023-08-30T08:14:09;100429.56;;;13.17;100.00
74065;BME280;62421;51.412;5.432;2023-08-30T08:16:35;100436.81;;;13.17;100.00
74065;BME280;62421;51.412;5.432;2023-08-30T08:19:00;100440.22;;;13.19;100.00
74065;BME280;62421;51.412;5.432;2023-08-30T08:21:27;100436.81;;;13.17;100.00
74065;BME280;62421;51.412;5.432;2023-08-30T08:23:52;100436.09;;;13.15;100.00
74065;BME280;62421;51.412;5.432;2023-08-30T08:26:17;100438.78;;;13.15;100.00
74065;BME280;62421;51.412;5.432;2023-08-30T08:28:44;100446.16;;;13.13;100.00
74065;BME280;62421;51.412;5.432;2023-08-30T08:31:09;100438.31;;;13.09;100.00
74065;BME280;62421;51.412;5.432;2023-08-30T08:33:34;100445.56;;;13.09;100.00
74065;BME280;62421;51.412;5.432;2023-08-30T08:36:00;100443.69;;;13.09;100.00
74065;BME280;62421;51.412;5.432;2023-08-30T08:38:26;100438.06;;;13.13;100.00
74065;BME280;62421;51.412;5.432;2023-08-30T08:41:01;100438.63;;;13.16;100.00
74065;BME280;62421;51.412;5.432;2023-08-30T08:43:27;100446.34;;;13.21;100.00
74065;BME280;62421;51.412;5.432;2023-08-30T08:45:57;100438.44;;;13.29;100.00
74065;BME280;62421;51.412;5.432;2023-08-30T08:48:25;100435.94;;;13.37;100.00
74065;BME280;62421;51.412;5.432;2023-08-30T08:50:53;100438.81;;;13.45;100.00
74065;BME280;62421;51.412;5.432;2023-08-30T08:53:19;100434.00;;;13.49;100.00
74065;BME280;62421;51.412;5.432;2023-08-30T08:55:45;100439.25;;;13.50;100.00
74065;BME280;62421;51.412;5.432;2023-08-30T08:58:11;100430.44;;;13.48;100.00
74065;BME280;62421;51.412;5.432;2023-08-30T09:00:37;100437.97;;;13.55;100.00
74065;BME280;62421;51.412;5.432;2023-08-30T09:03:03;100435.88;;;13.58;100.00
74065;BME280;62421;51.412;5.432;2023-08-30T09:05:31;100439.16;;;13.62;100.00
74065;BME280;62421;51.412;5.432;2023-08-30T09:07:56;100441.16;;;13.69;100.00
74065;BME280;62421;51.412;5.432;2023-08-30T09:10:22;100444.16;;;13.76;100.00
74065;BME280;62421;51.412;5.432;2023-08-30T09:12:47;100432.22;;;13.79;100.00
74065;BME280;62421;51.412;5.432;2023-08-30T09:15:13;100437.22;;;13.83;100.00
74065;BME280;62421;51.412;5.432;2023-08-30T09:17:40;100435.53;;;13.92;100.00
74065;BME280;62421;51.412;5.432;2023-08-30T09:20:10;100440.22;;;14.00;100.00
74065;BME280;62421;51.412;5.432;2023-08-30T09:22:40;100439.97;;;14.03;100.00
74065;BME280;62421;51.412;5.432;2023-08-30T09:25:10;100452.59;;;14.02;100.00
74065;BME280;62421;51.412;5.432;2023-08-30T09:27:36;100452.47;;;14.04;100.00
74065;BME280;62421;51.412;5.432;2023-08-30T09:30:05;100455.03;;;14.05;100.00
74065;BME280;62421;51.412;5.432;2023-08-30T09:32:38;100444.22;;;14.05;100.00
74065;BME280;62421;51.412;5.432;2023-08-30T09:35:04;100442.38;;;14.06;100.00
74065;BME280;62421;51.412;5.432;2023-08-30T09:37:30;100441.41;;;14.07;100.00
74065;BME280;62421;51.412;5.432;2023-08-30T09:39:55;100436.28;;;14.13;100.00
74065;BME280;62421;51.412;5.432;2023-08-30T09:42:22;100447.66;;;14.27;100.00
74065;BME280;62421;51.412;5.432;2023-08-30T09:44:47;100433.75;;;14.41;100.00
74065;BME280;62421;51.412;5.432;2023-08-30T09:47:13;100444.00;;;14.57;100.00
74065;BME280;62421;51.412;5.432;2023-08-30T09:49:44;100434.88;;;14.68;100.00
74065;BME280;62421;51.412;5.432;2023-08-30T09:52:12;100438.97;;;14.82;100.00
74065;BME280;62421;51.412;5.432;2023-08-30T09:54:41;100446.78;;;15.04;100.00
74065;BME280;62421;51.412;5.432;2023-08-30T09:57:11;100447.53;;;15.34;100.00
74065;BME280;62421;51.412;5.432;2023-08-30T09:59:39;100440.56;;;15.59;100.00
74065;BME280;62421;51.412;5.432;2023-08-30T10:02:05;100432.56;;;15.77;100.00
74065;BME280;62421;51.412;5.432;2023-08-30T10:04:32;100421.00;;;16.03;100.00
74065;BME280;62421;51.412;5.432;2023-08-30T10:06:58;100431.13;;;16.18;100.00
74065;BME280;62421;51.412;5.432;2023-08-30T10:09:24;100419.91;;;16.31;100.00
74065;BME280;62421;51.412;5.432;2023-08-30T10:11:50;100424.94;;;16.44;100.00
74065;BME280;62421;51.412;5.432;2023-08-30T10:14:16;100429.66;;;16.60;100.00
74065;BME280;62421;51.412;5.432;2023-08-30T10:16:47;100416.84;;;16.88;100.00
74065;BME280;62421;51.412;5.432;2023-08-30T10:19:16;100417.38;;;17.18;100.00
74065;BME280;62421;51.412;5.432;2023-08-30T10:21:47;100407.97;;;17.30;100.00
74065;BME280;62421;51.412;5.432;2023-08-30T10:24:15;100416.69;;;17.50;100.00
74065;BME280;62421;51.412;5.432;2023-08-30T10:26:42;100411.69;;;17.72;100.00
74065;BME280;62421;51.412;5.432;2023-08-30T10:29:10;100420.78;;;17.89;100.00
74065;BME280;62421;51.412;5.432;2023-08-30T10:31:38;100422.00;;;18.03;100.00
74065;BME280;62421;51.412;5.432;2023-08-30T10:34:13;100414.19;;;18.08;100.00
74065;BME280;62421;51.412;5.432;2023-08-30T10:36:39;100409.28;;;18.11;100.00
74065;BME280;62421;51.412;5.432;2023-08-30T10:39:14;100415.03;;;18.08;100.00
74065;BME280;62421;51.412;5.432;2023-08-30T10:41:56;100411.97;;;17.95;100.00
74065;BME280;62421;51.412;5.432;2023-08-30T10:44:22;100414.00;;;17.93;100.00
74065;BME280;62421;51.412;5.432;2023-08-30T10:46:54;100398.44;;;18.11;100.00
74065;BME280;62421;51.412;5.432;2023-08-30T10:49:20;100393.16;;;18.26;100.00
74065;BME280;62421;51.412;5.432;2023-08-30T10:51:54;100393.00;;;18.36;100.00
74065;BME280;62421;51.412;5.432;2023-08-30T10:54:21;100391.97;;;18.45;100.00
74065;BME280;62421;51.412;5.432;2023-08-30T10:59:20;100396.56;;;18.36;100.00
74065;BME280;62421;51.412;5.432;2023-08-30T11:01:47;100398.44;;;18.52;100.00
74065;BME280;62421;51.412;5.432;2023-08-30T11:04:17;100395.22;;;18.57;100.00
74065;BME280;62421;51.412;5.432;2023-08-30T11:06:44;100400.16;;;18.70;100.00
74065;BME280;62421;51.412;5.432;2023-08-30T11:09:12;100388.25;;;18.87;100.00
74065;BME280;62421;51.412;5.432;2023-08-30T11:11:38;100395.41;;;18.80;100.00
74065;BME280;62421;51.412;5.432;2023-08-30T11:14:07;100393.19;;;18.67;100.00
74065;BME280;62421;51.412;5.432;2023-08-30T11:16:34;100398.63;;;18.51;100.00
74065;BME280;62421;51.412;5.432;2023-08-30T11:19:04;100399.28;;;18.28;100.00
74065;BME280;62421;51.412;5.432;2023-08-30T11:21:30;100391.94;;;18.04;100.00
74065;BME280;62421;51.412;5.432;2023-08-30T11:23:57;100395.81;;;17.93;100.00
74065;BME280;62421;51.412;5.432;2023-08-30T11:26:22;100399.69;;;17.83;100.00
74065;BME280;62421;51.412;5.432;2023-08-30T11:28:48;100388.78;;;17.66;100.00
74065;BME280;62421;51.412;5.432;2023-08-30T11:31:25;100395.16;;;17.57;100.00
74065;BME280;62421;51.412;5.432;2023-08-30T11:33:57;100400.09;;;17.53;100.00
74065;BME280;62421;51.412;5.432;2023-08-30T11:36:27;100391.56;;;17.48;100.00
74065;BME280;62421;51.412;5.432;2023-08-30T11:39:00;100387.47;;;17.44;100.00
74065;BME280;62421;51.412;5.432;2023-08-30T11:41:26;100389.84;;;17.39;100.00
74065;BME280;62421;51.412;5.432;2023-08-30T11:43:52;100400.44;;;17.58;100.00
74065;BME280;62421;51.412;5.432;2023-08-30T11:46:19;100396.19;;;18.07;100.00
74065;BME280;62421;51.412;5.432;2023-08-30T11:48:46;100396.06;;;18.33;100.00
74065;BME280;62421;51.412;5.432;2023-08-30T11:51:13;100394.38;;;18.40;100.00
74065;BME280;62421;51.412;5.432;2023-08-30T11:53:38;100392.50;;;18.24;100.00
74065;BME280;62421;51.412;5.432;2023-08-30T11:56:05;100401.31;;;18.10;100.00
74065;BME280;62421;51.412;5.432;2023-08-30T11:58:37;100402.78;;;17.96;100.00
74065;BME280;62421;51.412;5.432;2023-08-30T12:01:03;100397.69;;;17.93;100.00
74065;BME280;62421;51.412;5.432;2023-08-30T12:03:30;100407.06;;;17.98;100.00
74065;BME280;62421;51.412;5.432;2023-08-30T12:05:56;100405.19;;;17.99;100.00
74065;BME280;62421;51.412;5.432;2023-08-30T12:08:26;100402.28;;;17.92;100.00
74065;BME280;62421;51.412;5.432;2023-08-30T12:10:52;100398.38;;;17.95;100.00
74065;BME280;62421;51.412;5.432;2023-08-30T12:13:24;100408.25;;;18.04;100.00
74065;BME280;62421;51.412;5.432;2023-08-30T12:15:51;100387.38;;;18.13;100.00
74065;BME280;62421;51.412;5.432;2023-08-30T12:18:16;100395.56;;;18.29;100.00
74065;BME280;62421;51.412;5.432;2023-08-30T12:20:56;100396.06;;;18.57;100.00
74065;BME280;62421;51.412;5.432;2023-08-30T12:23:23;100394.22;;;18.82;100.00
74065;BME280;62421;51.412;5.432;2023-08-30T12:28:28;100402.53;;;18.56;100.00
74065;BME280;62421;51.412;5.432;2023-08-30T12:30:55;100405.91;;;18.26;95.66
74065;BME280;62421;51.412;5.432;2023-08-30T12:33:20;100413.19;;;18.00;100.00
74065;BME280;62421;51.412;5.432;2023-08-30T12:35:46;100414.72;;;18.11;100.00
74065;BME280;62421;51.412;5.432;2023-08-30T12:38:12;100404.03;;;18.34;99.21
74065;BME280;62421;51.412;5.432;2023-08-30T12:40:37;100401.34;;;18.51;96.37
74065;BME280;62421;51.412;5.432;2023-08-30T12:43:04;100400.81;;;18.63;96.24
74065;BME280;62421;51.412;5.432;2023-08-30T12:45:29;100405.06;;;18.74;90.02
74065;BME280;62421;51.412;5.432;2023-08-30T12:47:55;100411.53;;;18.81;86.15